Terminal Aerodrome Forecast
Issued by NWS

Home | Current Version | Previous Version | Text Only | Print | Product List | Glossary On
Versions: 1 2 3 4 5 6 7 8 9 10 11 12 13 14 15 16 17 18 19 20 21 22 23
000
FTUS45 KFGZ 191100 RRA
TAFPGA
TAF
KPGA 191143Z 1912/2012 00000KT P6SM SKC
     FM191800 VRB06KT P6SM SCT200
     FM200200 VRB03KT P6SM FEW120 BKN250=

USA.gov is the U.S. government's official web portal to all federal, state and local government web resources and services.